createdAt,value
2018-04-10T00:14:37.002Z,31.60
2018-04-10T00:17:04.537Z,33.90
2018-04-10T00:19:45.016Z,34.47
2018-04-10T01:23:25.690Z,48.23
2018-04-10T01:25:56.475Z,50.03
2018-04-10T01:28:24.789Z,49.13
2018-04-10T01:30:52.323Z,48.97
2018-04-10T01:33:19.850Z,48.83
2018-04-10T01:35:47.391Z,47.43
2018-04-10T01:38:14.930Z,50.23
2018-04-10T01:40:42.465Z,51.70
2018-04-10T01:43:09.999Z,50.13
2018-04-10T01:45:38.295Z,50.00
2018-04-10T01:48:05.982Z,49.47
2018-04-10T01:50:33.519Z,51.93
2018-04-10T01:53:04.399Z,48.80
2018-04-10T01:55:31.931Z,51.60
2018-04-10T01:57:59.466Z,50.67
2018-04-10T02:00:27.847Z,51.27
2018-04-10T02:02:56.149Z,50.80
2018-04-10T02:05:23.688Z,50.07
2018-04-10T02:07:51.992Z,50.87
2018-04-10T02:10:19.525Z,51.10
2018-04-10T02:15:19.968Z,51.70
2018-04-10T02:18:05.353Z,51.50
2018-04-10T02:23:36.045Z,52.40
2018-04-10T02:26:03.595Z,55.07
2018-04-10T02:28:31.126Z,54.00
2018-04-10T02:30:58.660Z,54.13
2018-04-10T02:33:26.201Z,52.03
2018-04-10T02:35:53.751Z,57.80
2018-04-10T02:38:21.293Z,54.07
2018-04-10T02:40:48.828Z,54.77
2018-04-10T02:43:16.367Z,55.57
2018-04-10T02:45:45.377Z,59.13
2018-04-10T02:48:12.913Z,55.47
2018-04-10T02:50:40.456Z,59.63
2018-04-10T02:53:11.343Z,57.50
2018-04-10T02:55:38.875Z,57.80
2018-04-10T02:58:07.172Z,61.27
2018-04-10T03:00:34.700Z,62.33
2018-04-10T03:03:02.243Z,59.67
2018-04-10T03:05:29.775Z,60.73
2018-04-10T03:07:57.315Z,59.23
2018-04-10T03:10:24.917Z,64.30
2018-04-10T03:12:52.526Z,61.27
2018-04-10T03:15:37.355Z,60.13
2018-04-10T03:20:58.159Z,60.47
2018-04-10T03:23:25.700Z,58.93
2018-04-10T03:25:56.408Z,61.73
2018-04-10T03:28:24.710Z,66.53
2018-04-10T03:30:52.250Z,66.07
2018-04-10T03:33:19.810Z,62.97
2018-04-10T03:35:47.359Z,59.23
2018-04-10T03:38:15.647Z,60.27
2018-04-10T03:40:43.940Z,62.87
2018-04-10T03:43:11.479Z,57.97
2018-04-10T03:45:39.783Z,62.67
2018-04-10T03:48:07.329Z,61.97
2018-04-10T03:50:34.876Z,64.20
2018-04-10T03:53:03.173Z,60.67
2018-04-10T03:55:30.707Z,59.87
2018-04-10T03:58:02.059Z,60.33
2018-04-10T04:00:30.366Z,64.63
2018-04-10T04:02:57.894Z,64.03
2018-04-10T04:05:26.194Z,62.23
2018-04-10T04:07:53.725Z,61.13
2018-04-10T04:10:22.029Z,64.57
2018-04-10T04:24:43.988Z,69.27
2018-04-10T04:27:14.747Z,63.83
2018-04-10T04:29:43.053Z,65.43
2018-04-10T04:32:10.604Z,61.00
2018-04-10T04:34:39.000Z,62.90
2018-04-10T04:37:06.653Z,61.40
2018-04-10T04:39:34.227Z,59.83
2018-04-10T04:42:01.785Z,59.00
2018-04-10T04:44:29.442Z,58.47
2018-04-10T04:46:57.010Z,62.13
2018-04-10T04:49:24.546Z,61.33
2018-04-10T04:51:52.847Z,57.37
2018-04-10T04:54:23.690Z,56.80
2018-04-10T04:56:51.227Z,56.00
2018-04-10T04:59:18.761Z,55.27
2018-04-10T05:01:47.065Z,56.67
2018-04-10T05:04:14.627Z,55.07
2018-04-10T05:06:42.794Z,54.90
2018-04-10T05:09:10.887Z,52.30
2018-04-10T05:11:41.673Z,54.47
2018-04-10T05:23:07.556Z,55.17
2018-04-10T05:25:35.088Z,49.47
2018-04-10T05:28:09.975Z,50.53
2018-04-10T05:30:40.797Z,50.07
2018-04-10T05:33:09.097Z,48.40
2018-04-10T05:35:36.636Z,45.83
2018-04-10T05:38:04.973Z,48.10
2018-04-10T05:40:32.539Z,49.17
2018-04-10T05:43:00.086Z,48.77
2018-04-10T05:45:27.610Z,43.10
2018-04-10T05:47:55.149Z,47.50
2018-04-10T05:50:23.454Z,52.67
2018-04-10T05:52:51.000Z,45.83
2018-04-10T05:55:19.311Z,41.63
2018-04-10T05:57:50.034Z,37.87
2018-04-10T06:00:17.588Z,44.87
2018-04-10T06:02:45.124Z,38.20
2018-04-10T06:05:13.438Z,41.03
2018-04-10T06:07:41.059Z,36.93
2018-04-10T06:10:09.383Z,37.43
2018-04-10T06:21:56.699Z,35.43
2018-04-10T06:24:30.114Z,40.47
2018-04-10T06:26:57.676Z,38.53
2018-04-10T06:29:26.004Z,39.30
2018-04-10T06:31:53.543Z,35.50
2018-04-10T06:34:21.077Z,35.23
2018-04-10T06:36:49.395Z,38.43
2018-04-10T06:39:16.972Z,38.50
2018-04-10T06:41:44.517Z,37.70
2018-04-10T06:44:12.076Z,35.40
2018-04-10T06:46:39.612Z,41.20
2018-04-10T06:49:07.905Z,39.83
2018-04-10T06:51:38.571Z,41.80
2018-04-10T06:54:06.109Z,37.83
2018-04-10T06:56:33.675Z,41.57
2018-04-10T06:59:01.221Z,44.07
2018-04-10T07:01:28.767Z,41.33
2018-04-10T07:03:56.297Z,42.60
2018-04-10T07:06:23.833Z,43.73
2018-04-10T07:08:54.377Z,47.67
2018-04-10T07:11:21.920Z,45.73
2018-04-10T08:20:36.021Z,44.83
2018-04-10T08:25:56.676Z,45.63
2018-04-10T08:28:27.428Z,41.37
2018-04-10T08:30:54.984Z,40.00
2018-04-10T08:33:23.290Z,39.77
2018-04-10T08:35:50.836Z,35.90
2018-04-10T08:38:18.390Z,36.27
2018-04-10T08:40:46.691Z,32.20
2018-04-10T08:43:14.270Z,38.33
2018-04-10T08:45:41.903Z,32.57
2018-04-10T08:48:09.458Z,31.00
2018-04-10T08:50:37.047Z,33.97
2018-04-10T08:53:04.586Z,32.63
2018-04-10T08:55:32.140Z,34.47
2018-04-10T08:58:02.803Z,33.73
2018-04-10T09:00:30.345Z,32.90
2018-04-10T09:02:57.935Z,35.73
2018-04-10T09:05:25.481Z,29.27
2018-04-10T09:07:53.040Z,36.43
2018-04-10T09:10:20.630Z,33.67
2018-04-10T09:12:48.177Z,32.87
2018-04-10T09:18:28.893Z,34.70
2018-04-10T09:20:57.201Z,32.70
2018-04-10T10:23:51.956Z,27.90
2018-04-10T10:26:19.496Z,24.13
2018-04-10T10:28:47.047Z,28.90
2018-04-10T10:31:17.696Z,26.83
2018-04-10T10:33:45.235Z,24.73
2018-04-10T10:36:12.791Z,25.90
2018-04-10T10:38:40.334Z,25.93
2018-04-10T10:41:08.649Z,27.57
2018-04-10T10:43:36.190Z,25.70
2018-04-10T10:46:03.772Z,28.83
2018-04-10T10:48:31.307Z,24.80
2018-04-10T10:50:58.919Z,26.10
2018-04-10T10:53:26.471Z,26.67
2018-04-10T10:55:57.046Z,25.23
2018-04-10T10:58:24.603Z,23.23
2018-04-10T11:00:52.913Z,25.10
2018-04-10T11:03:20.468Z,22.83
2018-04-10T11:05:48.012Z,25.60
2018-04-10T11:08:15.546Z,26.60
2018-04-10T11:10:43.102Z,26.67
2018-04-10T11:22:17.036Z,25.90
2018-04-10T12:16:14.154Z,24.03
2018-04-10T12:27:45.501Z,22.17
2018-04-10T12:43:03.127Z,19.50
2018-04-10T12:45:31.450Z,21.17
2018-04-10T12:47:58.988Z,20.57
2018-04-10T12:50:26.527Z,20.40
2018-04-10T12:52:54.822Z,22.97
2018-04-10T12:55:25.585Z,20.27
2018-04-10T12:57:53.128Z,20.83
2018-04-10T13:00:20.677Z,19.17
2018-04-10T13:02:48.210Z,22.70
2018-04-10T13:05:16.526Z,22.50
2018-04-10T13:07:44.061Z,23.80
2018-04-10T13:10:12.368Z,18.90
2018-04-10T13:23:40.686Z,18.37
2018-04-10T13:26:09.002Z,20.63
2018-04-10T13:28:39.712Z,19.70
2018-04-10T13:31:07.254Z,21.63
2018-04-10T13:33:35.567Z,20.00
2018-04-10T13:36:03.131Z,21.90
2018-04-10T13:38:30.682Z,17.37
2018-04-10T13:40:58.332Z,18.23
2018-04-10T13:43:25.915Z,18.43
2018-04-10T13:45:57.129Z,17.80
2018-04-10T13:48:25.430Z,18.47
2018-04-10T13:50:52.968Z,19.93
2018-04-10T13:53:21.276Z,17.67
2018-04-10T13:55:51.917Z,17.07
2018-04-10T13:58:19.455Z,18.17
2018-04-10T14:00:46.995Z,21.53
2018-04-10T14:03:15.315Z,17.77
2018-04-10T14:05:42.870Z,21.67
2018-04-10T14:08:10.444Z,20.20
2018-04-10T14:10:37.995Z,18.13
2018-04-10T14:15:58.875Z,21.00
2018-04-10T14:18:27.179Z,22.70
2018-04-10T15:21:46.404Z,22.40
2018-04-10T15:24:17.139Z,21.50
2018-04-10T15:26:44.679Z,21.97
2018-04-10T15:29:12.222Z,23.73
2018-04-10T15:31:39.788Z,27.73
2018-04-10T15:34:07.334Z,21.57
2018-04-10T15:36:34.923Z,24.83
2018-04-10T15:39:02.477Z,22.50
2018-04-10T15:41:30.027Z,21.17
2018-04-10T15:43:57.573Z,22.37
2018-04-10T15:46:28.795Z,27.10
2018-04-10T15:49:00.108Z,22.20
2018-04-10T15:51:27.662Z,25.70
2018-04-10T15:53:55.189Z,21.37
2018-04-10T15:56:22.733Z,21.47
2018-04-10T15:58:51.040Z,22.90
2018-04-10T16:01:18.573Z,28.33
2018-04-10T16:03:46.879Z,24.93
2018-04-10T16:06:14.437Z,21.30
2018-04-10T16:08:41.986Z,26.80
2018-04-10T16:11:09.523Z,19.87
2018-04-10T16:16:31.255Z,17.23
2018-04-10T16:18:58.840Z,22.03
2018-04-10T16:24:30.670Z,21.27
2018-04-10T16:26:58.240Z,23.67
2018-04-10T16:29:25.788Z,23.50
2018-04-10T16:31:53.323Z,18.63
2018-04-10T16:34:20.874Z,19.80
2018-04-10T16:36:48.419Z,20.83
2018-04-10T16:39:16.689Z,20.17
2018-04-10T16:54:37.424Z,18.67
2018-04-10T16:57:05.555Z,18.40
2018-04-10T16:59:33.918Z,22.10
2018-04-10T17:02:02.911Z,23.93
2018-04-10T17:04:31.231Z,20.67
2018-04-10T17:06:58.784Z,19.33
2018-04-10T17:09:26.338Z,20.70
2018-04-10T17:11:53.873Z,18.27
2018-04-10T17:14:22.213Z,18.30
2018-04-10T17:20:00.558Z,18.67
2018-04-10T17:28:15.906Z,22.00
2018-04-10T17:30:44.217Z,20.03
2018-04-10T17:33:11.753Z,23.13
2018-04-10T17:35:39.288Z,21.17
2018-04-10T17:38:06.859Z,18.97
2018-04-10T17:40:36.754Z,18.57
2018-04-10T17:43:04.326Z,20.90
2018-04-10T17:45:32.615Z,17.57
2018-04-10T17:48:00.192Z,17.90
2018-04-10T17:50:31.100Z,23.43
2018-04-10T17:52:58.642Z,22.83
2018-04-10T17:55:26.191Z,16.50
2018-04-10T17:57:53.739Z,20.70
2018-04-10T18:00:21.279Z,18.93
2018-04-10T18:02:48.864Z,18.70
2018-04-10T18:05:16.436Z,22.67
2018-04-10T18:07:44.728Z,20.70
2018-04-10T18:10:12.258Z,18.63
2018-04-10T18:16:18.323Z,19.93
2018-04-10T19:16:16.317Z,17.93
2018-04-10T19:21:49.788Z,20.57
2018-04-10T19:24:21.759Z,16.73
2018-04-10T19:26:49.306Z,20.13
2018-04-10T19:29:16.920Z,16.70
2018-04-10T19:31:44.456Z,13.30
2018-04-10T19:34:12.012Z,14.47
2018-04-10T19:36:39.589Z,14.63
2018-04-10T19:39:07.124Z,17.00
2018-04-10T19:41:34.692Z,12.73
2018-04-10T19:44:02.250Z,16.87
2018-04-10T19:46:29.818Z,16.23
2018-04-10T19:48:57.395Z,19.57
2018-04-10T19:51:24.959Z,15.67
2018-04-10T19:53:55.467Z,16.50
2018-04-10T19:56:23.072Z,14.63
2018-04-10T19:58:50.648Z,16.80
2018-04-10T20:01:18.209Z,14.40
2018-04-10T20:03:45.797Z,14.80
2018-04-10T20:06:13.344Z,13.27
2018-04-10T20:08:43.549Z,16.43
2018-04-10T20:11:11.883Z,12.10
2018-04-10T20:19:32.552Z,17.73
2018-04-10T20:31:40.399Z,11.27
2018-04-10T20:34:10.248Z,12.97
2018-04-10T20:36:41.880Z,18.17
2018-04-10T20:39:09.473Z,14.50
2018-04-10T20:41:37.843Z,11.13
2018-04-10T20:44:05.395Z,9.90
2018-04-10T20:46:34.787Z,12.00
2018-04-10T20:49:05.191Z,14.97
2018-04-10T20:51:33.334Z,13.03
2018-04-10T20:54:01.038Z,14.03
2018-04-10T20:56:32.990Z,7.07
2018-04-10T20:59:03.422Z,13.83
2018-04-10T21:01:33.473Z,10.57
2018-04-10T21:04:03.561Z,13.73
2018-04-10T21:16:14.957Z,9.57
2018-04-10T22:13:27.453Z,12.07
2018-04-10T22:15:55.758Z,13.20
2018-04-10T23:18:46.052Z,11.30
2018-04-10T23:27:12.859Z,11.13
2018-04-10T23:29:40.391Z,9.67
2018-04-10T23:32:08.702Z,8.43
2018-04-10T23:34:36.256Z,9.80
2018-04-10T23:37:03.920Z,14.20
2018-04-10T23:39:31.465Z,10.23
2018-04-10T23:41:59.174Z,10.73
2018-04-10T23:44:27.325Z,12.00
2018-04-10T23:46:54.858Z,8.47
2018-04-10T23:49:23.154Z,13.43
2018-04-10T23:51:50.678Z,8.13
2018-04-10T23:54:18.215Z,8.87
2018-04-10T23:56:45.744Z,14.07
2018-04-10T23:59:16.363Z,10.90
